Cosco Tengfei — HPMO — position and weather

sailwx.info

Track history (hours):
 
Tides and Currents Weather Stations Pressure Air Temp Water Temp Dewpoint Dewpoint Depression Visibility Wind Speed Wind Dir Waves Ship Positions

Cosco Tengfei

Last reported at 2017-Jun-20 20:19 UTC. Time now 2017-Jun-25 22:33 UTC.
Position N 24°05' W 016°58'.

Length 183 m; draft 9.3 m.

Type: Cargo ship. MMSI: 355518000.

Date/timePositionNaut miles runAvg speedWind from/ knotsBaromVisibWave heightAir tempDewpointWater temp
2017-Jun-20 20:19N 24°05' W 016°58'21116.6
2017-Jun-20 07:37N 27°18' W 015°22'1617.0
2017-Jun-20 06:40N 27°33' W 015°15'317.3
2017-Jun-20 06:30N 27°35' W 015°14'917.1
2017-Jun-20 06:00N 27°43' W 015°10'816.5
2017-Jun-20 05:30N 27°51' W 015°06'816.5
2017-Jun-20 05:01N 27°58' W 015°03'816.7
2017-Jun-20 04:31N 28°06' W 015°01'917.0
2017-Jun-20 04:01N 28°14' W 014°57'917.1
2017-Jun-20 03:31N 28°22' W 014°54'816.7
2017-Jun-20 03:01N 28°30' W 014°51'816.6
2017-Jun-20 02:30N 28°38' W 014°49'1116.7
2017-Jun-20 01:51N 28°49' W 014°45'716.5
2017-Jun-20 01:27N 28°55' W 014°43'816.5
2017-Jun-20 00:58N 29°03' W 014°41'816.5
2017-Jun-20 00:30N 29°10' W 014°39'816.6
2017-Jun-20 00:01N 29°18' W 014°36'816.4
2017-Jun-19 23:30N 29°26' W 014°33'1016.3
2017-Jun-19 22:52N 29°36' W 014°30'716.1
2017-Jun-19 22:28N 29°42' W 014°28'816.1
2017-Jun-19 21:59N 29°50' W 014°26'816.2
2017-Jun-19 21:30N 29°58' W 014°24'39916.1
2017-Jun-18 20:38N 36°23' W 012°19'315.8
2017-Jun-18 20:27N 36°26' W 012°18'2815.7
2017-Jun-18 18:40N 36°53' W 012°09'915.7
2017-Jun-18 18:04N 37°02' W 012°06'115.7
2017-Jun-18 18:00N 37°03' W 012°06'915.6
2017-Jun-18 17:25N 37°12' W 012°03'1815.7
2017-Jun-18 16:17N 37°29' W 011°57'516.1
2017-Jun-18 15:56N 37°34' W 011°55'715.9
2017-Jun-18 15:31N 37°41' W 011°53'815.8
2017-Jun-18 14:59N 37°49' W 011°50'1616.4
2017-Jun-18 14:01N 38°04' W 011°45'816.2
2017-Jun-18 13:31N 38°12' W 011°42'816.0
2017-Jun-18 13:00N 38°20' W 011°40'816.2
2017-Jun-18 12:31N 38°28' W 011°37'816.2
2017-Jun-18 12:00N 38°35' W 011°34'816.5
2017-Jun-18 11:30N 38°43' W 011°31'816.5
2017-Jun-18 11:00N 38°51' W 011°29'816.5
2017-Jun-18 10:31N 38°59' W 011°26'816.4
2017-Jun-18 10:01N 39°07' W 011°23'816.6
2017-Jun-18 09:30N 39°15' W 011°20'816.2
2017-Jun-18 08:59N 39°23' W 011°17'1316.1
2017-Jun-18 08:10N 39°36' W 011°13'316.4
2017-Jun-18 08:00N 39°38' W 011°12'917.1
2017-Jun-18 07:30N 39°47' W 011°09'917.5
2017-Jun-18 07:00N 39°55' W 011°06'816.5
2017-Jun-18 06:30N 40°03' W 011°03'816.2
2017-Jun-18 06:00N 40°11' W 011°00'815.9
2017-Jun-18 05:30N 40°19' W 010°58'815.8
2017-Jun-18 05:00N 40°26' W 010°55'816.2
2017-Jun-18 04:30N 40°34' W 010°52'816.0
2017-Jun-18 04:00N 40°42' W 010°49'816.2
2017-Jun-18 03:30N 40°50' W 010°47'816.3
2017-Jun-18 03:00N 40°58' W 010°44'815.8
2017-Jun-18 02:31N 41°05' W 010°42'1816.0
2017-Jun-18 01:22N 41°23' W 010°35'615.9
2017-Jun-18 00:58N 41°29' W 010°33'715.9
2017-Jun-18 00:30N 41°36' W 010°30'36215.7
2017-Jun-17 01:25N 47°09' W 007°11'715.9
2017-Jun-17 00:59N 47°15' W 007°07'816.0
2017-Jun-17 00:30N 47°22' W 007°02'816.2
2017-Jun-17 00:01N 47°29' W 006°57'816.8
2017-Jun-16 23:31N 47°37' W 006°51'816.7
2017-Jun-16 23:00N 47°44' W 006°46'816.6
2017-Jun-16 22:30N 47°51' W 006°40'4215.6
2017-Jun-16 19:48N 48°28' W 006°08'2515.0
2017-Jun-16 18:07N 48°50' W 005°50'215.1
2017-Jun-16 18:00N 48°52' W 005°49'714.6
2017-Jun-16 17:30N 48°57' W 005°42'714.6
2017-Jun-16 17:01N 48°60' W 005°32'914.9
2017-Jun-16 16:26N 49°04' W 005°20'615.0
2017-Jun-16 16:00N 49°07' W 005°12'815.6
2017-Jun-16 15:30N 49°11' W 005°02'815.4
2017-Jun-16 15:01N 49°15' W 004°52'815.7
2017-Jun-16 14:30N 49°20' W 004°41'1615.7
2017-Jun-16 13:31N 49°27' W 004°21'815.4
2017-Jun-16 13:00N 49°31' W 004°10'715.1
2017-Jun-16 12:30N 49°35' W 003°60'815.0
2017-Jun-16 11:59N 49°39' W 003°50'714.9
2017-Jun-16 11:31N 49°43' W 003°41'714.4
2017-Jun-16 11:01N 49°47' W 003°31'714.5
2017-Jun-16 10:30N 49°50' W 003°21'714.6
2017-Jun-16 10:01N 49°54' W 003°12'714.6
2017-Jun-16 09:30N 49°57' W 003°01'815.1
2017-Jun-16 08:58N 49°59' W 002°49'1015.6
2017-Jun-16 08:19N 50°02' W 002°34'2517.0
2017-Jun-16 06:49N 50°09' W 001°56'618.1
2017-Jun-16 06:30N 50°10' W 001°47'918.1
2017-Jun-16 06:00N 50°13' W 001°34'2018.0
2017-Jun-16 04:52N 50°18' W 001°03'1016.9
2017-Jun-16 04:15N 50°21' W 000°47'1216.2
2017-Jun-16 03:30N 50°24' W 000°28'815.7
2017-Jun-16 03:01N 50°26' W 000°17'815.1
2017-Jun-16 02:31N 50°28' W 000°05'714.6
2017-Jun-16 02:00N 50°30' E 000°06'714.0
2017-Jun-16 01:30N 50°31' E 000°17'1213.9
2017-Jun-16 00:40N 50°35' E 000°34'414.4
2017-Jun-16 00:22N 50°37' E 000°40'514.7
2017-Jun-16 00:00N 50°40' E 000°47'815.2
2017-Jun-15 23:30N 50°45' E 000°57'815.9
2017-Jun-15 23:00N 50°49' E 001°07'816.7
2017-Jun-15 22:30N 50°54' E 001°17'917.3
2017-Jun-15 22:00N 51°00' E 001°27'917.1
2017-Jun-15 21:30N 51°07' E 001°36'816.6
2017-Jun-15 21:00N 51°13' E 001°45'815.9
2017-Jun-15 20:30N 51°19' E 001°52'815.3
2017-Jun-15 20:00N 51°26' E 001°59'714.8
2017-Jun-15 19:30N 51°31' E 002°07'714.4
2017-Jun-15 19:00N 51°37' E 002°14'2013.9
2017-Jun-15 17:34N 51°53' E 002°34'113.7
2017-Jun-15 17:30N 51°53' E 002°35'713.8
2017-Jun-15 17:00N 51°58' E 002°43'914.2
2017-Jun-15 16:24N 52°05' E 002°51'614.7
2017-Jun-15 15:59N 52°10' E 002°57'715.2
2017-Jun-15 15:30N 52°16' E 003°04'815.8
2017-Jun-15 15:00N 52°23' E 003°11'816.3
2017-Jun-15 14:30N 52°29' E 003°19'1616.6
2017-Jun-15 13:30N 52°42' E 003°36'816.8
2017-Jun-15 13:00N 52°49' E 003°45'1116.7
2017-Jun-15 12:19N 52°57' E 003°58'516.3
2017-Jun-15 12:00N 53°00' E 004°04'1815.6
2017-Jun-15 10:53N 53°12' E 004°26'815.1
2017-Jun-15 10:23N 53°19' E 004°31'615.0
2017-Jun-15 10:01N 53°24' E 004°35'714.3
2017-Jun-15 09:31N 53°30' E 004°43'714.6
2017-Jun-15 09:01N 53°32' E 004°54'714.3
2017-Jun-15 08:31N 53°34' E 005°06'814.8
2017-Jun-15 08:00N 53°37' E 005°18'715.4
2017-Jun-15 07:31N 53°39' E 005°30'816.1
2017-Jun-15 07:01N 53°42' E 005°43'816.7
2017-Jun-15 06:31N 53°45' E 005°56'1017.0
2017-Jun-15 05:56N 53°48' E 006°12'5815.1
2017-Jun-15 02:05N 53°52' E 007°50'110.4
2017-Jun-15 02:00N 53°52' E 007°51'713.6
2017-Jun-15 01:30N 53°51' E 008°03'714.1
2017-Jun-15 01:00N 53°46' E 008°11'713.7
2017-Jun-15 00:30N 53°42' E 008°20'612.1
2017-Jun-15 00:00N 53°38' E 008°28'4 8.8
2017-Jun-14 23:30N 53°34' E 008°32'0 0.9
2017-Jun-14 23:00N 53°34' E 008°33'0 0.6
2017-Jun-14 22:30N 53°34' E 008°33'0 0.3
2017-Jun-14 21:58N 53°35' E 008°33'0 0.0
2017-Jun-14 21:28N 53°35' E 008°33'0 0.0
2017-Jun-14 20:58N 53°35' E 008°33'0 0.0
2017-Jun-14 20:28N 53°35' E 008°33'0 0.0
2017-Jun-14 19:58N 53°35' E 008°33'0 0.0
2017-Jun-14 19:28N 53°35' E 008°33'0 0.0
2017-Jun-14 18:58N 53°35' E 008°33'0 0.0
2017-Jun-14 18:28N 53°35' E 008°33'0 0.0
2017-Jun-14 17:58N 53°35' E 008°33'0 0.0
2017-Jun-14 17:28N 53°35' E 008°33'0 0.0
2017-Jun-14 16:58N 53°35' E 008°33'0 0.0
2017-Jun-14 16:28N 53°35' E 008°33'0 0.0
2017-Jun-14 15:58N 53°35' E 008°33'0 0.0
2017-Jun-14 15:28N 53°35' E 008°33'0 0.0
2017-Jun-14 14:58N 53°35' E 008°33'0 0.0
2017-Jun-14 14:28N 53°35' E 008°33'0 0.0
2017-Jun-14 13:28N 53°35' E 008°33'0 0.0
2017-Jun-14 12:58N 53°35' E 008°33'0 0.0
2017-Jun-14 12:28N 53°35' E 008°33'0 0.0
2017-Jun-14 11:58N 53°35' E 008°33'0 0.0
2017-Jun-14 11:28N 53°35' E 008°33'0 0.0
2017-Jun-14 10:58N 53°35' E 008°33'0 0.0
2017-Jun-14 10:28N 53°35' E 008°33'0 0.0
2017-Jun-14 09:58N 53°35' E 008°33'0 0.0
2017-Jun-14 09:28N 53°35' E 008°33'0 0.0
2017-Jun-14 08:58N 53°35' E 008°33'0 0.0
2017-Jun-14 08:25N 53°35' E 008°33'0 0.0
2017-Jun-14 07:58N 53°35' E 008°33'0 0.0
2017-Jun-14 07:28N 53°35' E 008°33'0 0.0
2017-Jun-14 06:58N 53°35' E 008°33'0 0.0
2017-Jun-14 06:28N 53°35' E 008°33'0 0.0
2017-Jun-14 05:58N 53°35' E 008°33'0 0.0
2017-Jun-14 05:28N 53°35' E 008°33'0 0.0
2017-Jun-14 04:58N 53°35' E 008°33'0 0.0
2017-Jun-14 04:28N 53°35' E 008°33'0 0.0
2017-Jun-14 03:58N 53°35' E 008°33'0 0.0
2017-Jun-14 03:28N 53°35' E 008°33'0 0.0
2017-Jun-14 02:58N 53°35' E 008°33'0 0.0
2017-Jun-14 02:28N 53°35' E 008°33'0 0.0
2017-Jun-14 01:58N 53°35' E 008°33'0 0.0
2017-Jun-14 01:28N 53°35' E 008°33'0 0.0
2017-Jun-14 00:58N 53°35' E 008°33'0 0.0
2017-Jun-14 00:28N 53°35' E 008°33'0 0.0
2017-Jun-13 23:58N 53°35' E 008°33'0 0.0
2017-Jun-13 23:28N 53°35' E 008°33'0 0.0
2017-Jun-13 22:55N 53°35' E 008°33'0 0.0
2017-Jun-13 22:28N 53°35' E 008°33'0 0.0
2017-Jun-13 21:58N 53°35' E 008°33'0 0.0
2017-Jun-13 21:28N 53°35' E 008°33'0 0.0
2017-Jun-13 20:58N 53°35' E 008°33'0 1.1
2017-Jun-13 20:31N 53°34' E 008°33'0 0.1
2017-Jun-13 20:00N 53°34' E 008°33'1 1.6
2017-Jun-13 19:30N 53°35' E 008°32'3 6.7
2017-Jun-13 19:00N 53°37' E 008°28'511.0
2017-Jun-13 18:30N 53°41' E 008°21'611.9
2017-Jun-13 18:00N 53°44' E 008°13'611.3
2017-Jun-13 17:30N 53°49' E 008°07'4 8.2
2017-Jun-13 17:00N 53°51' E 008°01'4 7.1
2017-Jun-13 16:30N 53°51' E 007°55'96 8.7
2017-Jun-13 05:28N 53°32' E 005°17'3214.3
2017-Jun-13 03:13N 53°12' E 004°33'315.2
2017-Jun-13 03:00N 53°10' E 004°31'715.0
2017-Jun-13 02:30N 53°04' E 004°24'714.9
2017-Jun-13 02:01N 52°57' E 004°19'714.8
2017-Jun-13 01:30N 52°50' E 004°13'714.9
2017-Jun-13 01:00N 52°44' E 004°06'714.8
2017-Jun-13 00:30N 52°38' E 003°58'714.5
2017-Jun-13 00:01N 52°33' E 003°50'714.5
2017-Jun-12 23:31N 52°28' E 003°41'714.6
2017-Jun-12 23:00N 52°22' E 003°34'713.9
2017-Jun-12 22:30N 52°16' E 003°30'714.4
2017-Jun-12 22:00N 52°09' E 003°30'714.5
2017-Jun-12 21:31N 52°02' E 003°25'815.2
2017-Jun-12 21:00N 51°55' E 003°22'815.3
2017-Jun-12 20:30N 51°48' E 003°17'612.0
2017-Jun-12 19:59N 51°42' E 003°13'612.2
2017-Jun-12 19:31N 51°36' E 003°11'816.0
2017-Jun-12 19:00N 51°30' E 003°04'510.9
2017-Jun-12 18:31N 51°24' E 003°05'816.6
2017-Jun-12 18:00N 51°25' E 003°18'917.1
2017-Jun-12 17:31N 51°25' E 003°32'4 7.4
2017-Jun-12 17:01N 51°26' E 003°38'611.8
2017-Jun-12 16:30N 51°22' E 003°45'714.0
2017-Jun-12 16:01N 51°22' E 003°56'5 9.9
2017-Jun-12 15:30N 51°26' E 004°02'510.6
2017-Jun-12 15:01N 51°22' E 004°08'5 9.0
2017-Jun-12 14:30N 51°21' E 004°15'4 4.3
2017-Jun-12 13:31N 51°17' E 004°15'0 0.0
2017-Jun-12 13:01N 51°17' E 004°15'1 1.2
2017-Jun-12 12:31N 51°16' E 004°14'0 0.8
2017-Jun-12 11:58N 51°16' E 004°13'0 0.0
2017-Jun-12 11:28N 51°16' E 004°13'0 0.0
2017-Jun-12 10:55N 51°16' E 004°13'0 0.0
2017-Jun-12 10:19N 51°16' E 004°13'0 0.0
2017-Jun-12 09:58N 51°16' E 004°13'0 0.0
2017-Jun-12 09:28N 51°16' E 004°13'0 0.0
2017-Jun-12 08:58N 51°16' E 004°13'0 0.0
2017-Jun-12 08:28N 51°16' E 004°13'0 0.0
2017-Jun-12 07:58N 51°16' E 004°13'0 0.0
2017-Jun-12 07:01N 51°16' E 004°13'0 0.0
2017-Jun-12 06:58N 51°16' E 004°13'0 0.0
2017-Jun-12 06:16N 51°16' E 004°13'0 0.0
2017-Jun-12 05:43N 51°16' E 004°13'0 0.0
2017-Jun-12 05:28N 51°16' E 004°13'0 0.0
2017-Jun-12 04:58N 51°16' E 004°13'0 0.0
2017-Jun-12 04:28N 51°16' E 004°13'0 0.0
2017-Jun-12 03:52N 51°16' E 004°13'0 0.0
2017-Jun-12 03:28N 51°16' E 004°13'0 0.0
2017-Jun-12 02:58N 51°16' E 004°13'0 0.0
2017-Jun-12 02:28N 51°16' E 004°13'0 0.0
2017-Jun-12 01:55N 51°16' E 004°13'0 0.0
2017-Jun-12 01:28N 51°16' E 004°13'0 0.0
2017-Jun-12 00:58N 51°16' E 004°13'0 0.0
2017-Jun-12 00:28N 51°16' E 004°13'0 0.0
2017-Jun-11 23:58N 51°16' E 004°13'0 0.0
2017-Jun-11 23:22N 51°16' E 004°13'0 0.0
2017-Jun-11 22:58N 51°16' E 004°13'0 0.0
2017-Jun-11 22:28N 51°16' E 004°13'0 0.0
2017-Jun-11 21:58N 51°16' E 004°13'0 0.0
2017-Jun-11 21:25N 51°16' E 004°13'0 0.0
2017-Jun-11 20:58N 51°16' E 004°13'0 0.0
2017-Jun-11 20:28N 51°16' E 004°13'0 0.0
2017-Jun-11 19:58N 51°16' E 004°13'0 0.0
2017-Jun-11 19:19N 51°16' E 004°13'0 0.0
2017-Jun-11 18:58N 51°16' E 004°13'0 0.0
2017-Jun-11 18:28N 51°16' E 004°13'0 0.0
2017-Jun-11 17:58N 51°16' E 004°13'0 0.0
2017-Jun-11 17:28N 51°16' E 004°13'0 0.0
2017-Jun-11 16:58N 51°16' E 004°13'0 0.0
2017-Jun-11 16:28N 51°16' E 004°13'0 0.0
2017-Jun-11 15:58N 51°16' E 004°13'0 0.0
2017-Jun-11 15:28N 51°16' E 004°13'0 0.0
2017-Jun-11 14:58N 51°16' E 004°13'0 0.0
2017-Jun-11 13:58N 51°16' E 004°13'0 0.0
2017-Jun-11 13:28N 51°16' E 004°13'0 0.0
2017-Jun-11 12:58N 51°16' E 004°13'0 0.0
2017-Jun-11 12:28N 51°16' E 004°13'0 0.0
2017-Jun-11 11:58N 51°16' E 004°13'0 0.0
2017-Jun-11 11:22N 51°16' E 004°13'0 0.0
2017-Jun-11 10:58N 51°16' E 004°13'0 0.0
2017-Jun-11 10:22N 51°16' E 004°13'0 0.0
2017-Jun-11 09:58N 51°16' E 004°13'0 0.0
2017-Jun-11 09:25N 51°16' E 004°13'0 0.0
2017-Jun-11 08:58N 51°16' E 004°13'0 0.0
2017-Jun-11 08:28N 51°16' E 004°13'0 0.0
2017-Jun-11 07:55N 51°16' E 004°13'0 0.0
2017-Jun-11 07:25N 51°16' E 004°13'0 0.0
2017-Jun-11 06:58N 51°16' E 004°13'0 0.0
2017-Jun-11 06:28N 51°16' E 004°13'0 0.0
2017-Jun-11 05:55N 51°16' E 004°13'0 0.0
2017-Jun-11 05:28N 51°16' E 004°13'0 0.0
2017-Jun-11 04:55N 51°16' E 004°13'0 0.0
2017-Jun-11 04:28N 51°16' E 004°13'0 0.0
2017-Jun-11 03:58N 51°16' E 004°13'0 0.0
2017-Jun-11 03:28N 51°16' E 004°13'0 0.0
2017-Jun-11 02:55N 51°16' E 004°13'0 0.0
2017-Jun-11 02:28N 51°16' E 004°13'0 0.0
2017-Jun-11 01:58N 51°16' E 004°13'0 0.0
2017-Jun-11 01:28N 51°16' E 004°13'0 0.0
2017-Jun-11 00:52N 51°16' E 004°13'0 0.0
2017-Jun-11 00:28N 51°16' E 004°13'0 0.0
2017-Jun-10 23:55N 51°16' E 004°13'0 0.0
2017-Jun-10 23:25N 51°16' E 004°13'0 0.0
2017-Jun-10 22:55N 51°16' E 004°13'0 0.0
2017-Jun-10 22:25N 51°16' E 004°13'0 0.0
2017-Jun-10 21:58N 51°16' E 004°13'0 0.0
2017-Jun-10 21:28N 51°16' E 004°13'0 0.0
2017-Jun-10 20:55N 51°16' E 004°13'0 0.0
2017-Jun-10 20:28N 51°16' E 004°13'  
Track history (hours):
 
Tides and Currents Weather Stations Pressure Air Temp Water Temp Dewpoint Dewpoint Depression Visibility Wind Speed Wind Dir Waves Ship Positions

Cosco Tengfei

Last reported at 2017-Jun-20 20:19 UTC. Time now 2017-Jun-25 22:33 UTC.
Position N 24°05' W 016°58'.

Length 183 m; draft 9.3 m.

Type: Cargo ship. MMSI: 355518000.

Date/timePositionNaut miles runAvg speedWind from/ knotsBaromVisibWave heightAir tempDewpointWater temp
2017-Jun-20 20:19N 24°05' W 016°58'21116.6
2017-Jun-20 07:37N 27°18' W 015°22'1617.0
2017-Jun-20 06:40N 27°33' W 015°15'317.3
2017-Jun-20 06:30N 27°35' W 015°14'917.1
2017-Jun-20 06:00N 27°43' W 015°10'816.5
2017-Jun-20 05:30N 27°51' W 015°06'816.5
2017-Jun-20 05:01N 27°58' W 015°03'816.7
2017-Jun-20 04:31N 28°06' W 015°01'917.0
2017-Jun-20 04:01N 28°14' W 014°57'917.1
2017-Jun-20 03:31N 28°22' W 014°54'816.7
2017-Jun-20 03:01N 28°30' W 014°51'816.6
2017-Jun-20 02:30N 28°38' W 014°49'1116.7
2017-Jun-20 01:51N 28°49' W 014°45'716.5
2017-Jun-20 01:27N 28°55' W 014°43'816.5
2017-Jun-20 00:58N 29°03' W 014°41'816.5
2017-Jun-20 00:30N 29°10' W 014°39'816.6
2017-Jun-20 00:01N 29°18' W 014°36'816.4
2017-Jun-19 23:30N 29°26' W 014°33'1016.3
2017-Jun-19 22:52N 29°36' W 014°30'716.1
2017-Jun-19 22:28N 29°42' W 014°28'816.1
2017-Jun-19 21:59N 29°50' W 014°26'816.2
2017-Jun-19 21:30N 29°58' W 014°24'39916.1
2017-Jun-18 20:38N 36°23' W 012°19'315.8
2017-Jun-18 20:27N 36°26' W 012°18'2815.7
2017-Jun-18 18:40N 36°53' W 012°09'915.7
2017-Jun-18 18:04N 37°02' W 012°06'115.7
2017-Jun-18 18:00N 37°03' W 012°06'915.6
2017-Jun-18 17:25N 37°12' W 012°03'1815.7
2017-Jun-18 16:17N 37°29' W 011°57'516.1
2017-Jun-18 15:56N 37°34' W 011°55'715.9
2017-Jun-18 15:31N 37°41' W 011°53'815.8
2017-Jun-18 14:59N 37°49' W 011°50'1616.4
2017-Jun-18 14:01N 38°04' W 011°45'816.2
2017-Jun-18 13:31N 38°12' W 011°42'816.0
2017-Jun-18 13:00N 38°20' W 011°40'816.2
2017-Jun-18 12:31N 38°28' W 011°37'816.2
2017-Jun-18 12:00N 38°35' W 011°34'816.5
2017-Jun-18 11:30N 38°43' W 011°31'816.5
2017-Jun-18 11:00N 38°51' W 011°29'816.5
2017-Jun-18 10:31N 38°59' W 011°26'816.4
2017-Jun-18 10:01N 39°07' W 011°23'816.6
2017-Jun-18 09:30N 39°15' W 011°20'816.2
2017-Jun-18 08:59N 39°23' W 011°17'1316.1
2017-Jun-18 08:10N 39°36' W 011°13'316.4
2017-Jun-18 08:00N 39°38' W 011°12'917.1
2017-Jun-18 07:30N 39°47' W 011°09'917.5
2017-Jun-18 07:00N 39°55' W 011°06'816.5
2017-Jun-18 06:30N 40°03' W 011°03'816.2
2017-Jun-18 06:00N 40°11' W 011°00'815.9
2017-Jun-18 05:30N 40°19' W 010°58'815.8
2017-Jun-18 05:00N 40°26' W 010°55'816.2
2017-Jun-18 04:30N 40°34' W 010°52'816.0
2017-Jun-18 04:00N 40°42' W 010°49'816.2
2017-Jun-18 03:30N 40°50' W 010°47'816.3
2017-Jun-18 03:00N 40°58' W 010°44'815.8
2017-Jun-18 02:31N 41°05' W 010°42'1816.0
2017-Jun-18 01:22N 41°23' W 010°35'615.9
2017-Jun-18 00:58N 41°29' W 010°33'715.9
2017-Jun-18 00:30N 41°36' W 010°30'36215.7
2017-Jun-17 01:25N 47°09' W 007°11'715.9
2017-Jun-17 00:59N 47°15' W 007°07'816.0
2017-Jun-17 00:30N 47°22' W 007°02'816.2
2017-Jun-17 00:01N 47°29' W 006°57'816.8
2017-Jun-16 23:31N 47°37' W 006°51'816.7
2017-Jun-16 23:00N 47°44' W 006°46'816.6
2017-Jun-16 22:30N 47°51' W 006°40'4215.6
2017-Jun-16 19:48N 48°28' W 006°08'2515.0
2017-Jun-16 18:07N 48°50' W 005°50'215.1
2017-Jun-16 18:00N 48°52' W 005°49'714.6
2017-Jun-16 17:30N 48°57' W 005°42'714.6
2017-Jun-16 17:01N 48°60' W 005°32'914.9
2017-Jun-16 16:26N 49°04' W 005°20'615.0
2017-Jun-16 16:00N 49°07' W 005°12'815.6
2017-Jun-16 15:30N 49°11' W 005°02'815.4
2017-Jun-16 15:01N 49°15' W 004°52'815.7
2017-Jun-16 14:30N 49°20' W 004°41'1615.7
2017-Jun-16 13:31N 49°27' W 004°21'815.4
2017-Jun-16 13:00N 49°31' W 004°10'715.1
2017-Jun-16 12:30N 49°35' W 003°60'815.0
2017-Jun-16 11:59N 49°39' W 003°50'714.9
2017-Jun-16 11:31N 49°43' W 003°41'714.4
2017-Jun-16 11:01N 49°47' W 003°31'714.5
2017-Jun-16 10:30N 49°50' W 003°21'714.6
2017-Jun-16 10:01N 49°54' W 003°12'714.6
2017-Jun-16 09:30N 49°57' W 003°01'815.1
2017-Jun-16 08:58N 49°59' W 002°49'1015.6
2017-Jun-16 08:19N 50°02' W 002°34'2517.0
2017-Jun-16 06:49N 50°09' W 001°56'618.1
2017-Jun-16 06:30N 50°10' W 001°47'918.1
2017-Jun-16 06:00N 50°13' W 001°34'2018.0
2017-Jun-16 04:52N 50°18' W 001°03'1016.9
2017-Jun-16 04:15N 50°21' W 000°47'1216.2
2017-Jun-16 03:30N 50°24' W 000°28'815.7
2017-Jun-16 03:01N 50°26' W 000°17'815.1
2017-Jun-16 02:31N 50°28' W 000°05'714.6
2017-Jun-16 02:00N 50°30' E 000°06'714.0
2017-Jun-16 01:30N 50°31' E 000°17'1213.9
2017-Jun-16 00:40N 50°35' E 000°34'414.4
2017-Jun-16 00:22N 50°37' E 000°40'514.7
2017-Jun-16 00:00N 50°40' E 000°47'815.2
2017-Jun-15 23:30N 50°45' E 000°57'815.9
2017-Jun-15 23:00N 50°49' E 001°07'816.7
2017-Jun-15 22:30N 50°54' E 001°17'917.3
2017-Jun-15 22:00N 51°00' E 001°27'917.1
2017-Jun-15 21:30N 51°07' E 001°36'816.6
2017-Jun-15 21:00N 51°13' E 001°45'815.9
2017-Jun-15 20:30N 51°19' E 001°52'815.3
2017-Jun-15 20:00N 51°26' E 001°59'714.8
2017-Jun-15 19:30N 51°31' E 002°07'714.4
2017-Jun-15 19:00N 51°37' E 002°14'2013.9
2017-Jun-15 17:34N 51°53' E 002°34'113.7
2017-Jun-15 17:30N 51°53' E 002°35'713.8
2017-Jun-15 17:00N 51°58' E 002°43'914.2
2017-Jun-15 16:24N 52°05' E 002°51'614.7
2017-Jun-15 15:59N 52°10' E 002°57'715.2
2017-Jun-15 15:30N 52°16' E 003°04'815.8
2017-Jun-15 15:00N 52°23' E 003°11'816.3
2017-Jun-15 14:30N 52°29' E 003°19'1616.6
2017-Jun-15 13:30N 52°42' E 003°36'816.8
2017-Jun-15 13:00N 52°49' E 003°45'1116.7
2017-Jun-15 12:19N 52°57' E 003°58'516.3
2017-Jun-15 12:00N 53°00' E 004°04'1815.6
2017-Jun-15 10:53N 53°12' E 004°26'815.1
2017-Jun-15 10:23N 53°19' E 004°31'615.0
2017-Jun-15 10:01N 53°24' E 004°35'714.3
2017-Jun-15 09:31N 53°30' E 004°43'714.6
2017-Jun-15 09:01N 53°32' E 004°54'714.3
2017-Jun-15 08:31N 53°34' E 005°06'814.8
2017-Jun-15 08:00N 53°37' E 005°18'715.4
2017-Jun-15 07:31N 53°39' E 005°30'816.1
2017-Jun-15 07:01N 53°42' E 005°43'816.7
2017-Jun-15 06:31N 53°45' E 005°56'1017.0
2017-Jun-15 05:56N 53°48' E 006°12'5815.1
2017-Jun-15 02:05N 53°52' E 007°50'110.4
2017-Jun-15 02:00N 53°52' E 007°51'713.6
2017-Jun-15 01:30N 53°51' E 008°03'714.1
2017-Jun-15 01:00N 53°46' E 008°11'713.7
2017-Jun-15 00:30N 53°42' E 008°20'612.1
2017-Jun-15 00:00N 53°38' E 008°28'4 8.8
2017-Jun-14 23:30N 53°34' E 008°32'0 0.9
2017-Jun-14 23:00N 53°34' E 008°33'0 0.6
2017-Jun-14 22:30N 53°34' E 008°33'0 0.3
2017-Jun-14 21:58N 53°35' E 008°33'0 0.0
2017-Jun-14 21:28N 53°35' E 008°33'0 0.0
2017-Jun-14 20:58N 53°35' E 008°33'0 0.0
2017-Jun-14 20:28N 53°35' E 008°33'0 0.0
2017-Jun-14 19:58N 53°35' E 008°33'0 0.0
2017-Jun-14 19:28N 53°35' E 008°33'0 0.0
2017-Jun-14 18:58N 53°35' E 008°33'0 0.0
2017-Jun-14 18:28N 53°35' E 008°33'0 0.0
2017-Jun-14 17:58N 53°35' E 008°33'0 0.0
2017-Jun-14 17:28N 53°35' E 008°33'0 0.0
2017-Jun-14 16:58N 53°35' E 008°33'0 0.0
2017-Jun-14 16:28N 53°35' E 008°33'0 0.0
2017-Jun-14 15:58N 53°35' E 008°33'0 0.0
2017-Jun-14 15:28N 53°35' E 008°33'0 0.0
2017-Jun-14 14:58N 53°35' E 008°33'0 0.0
2017-Jun-14 14:28N 53°35' E 008°33'0 0.0
2017-Jun-14 13:28N 53°35' E 008°33'0 0.0
2017-Jun-14 12:58N 53°35' E 008°33'0 0.0
2017-Jun-14 12:28N 53°35' E 008°33'0 0.0
2017-Jun-14 11:58N 53°35' E 008°33'0 0.0
2017-Jun-14 11:28N 53°35' E 008°33'0 0.0
2017-Jun-14 10:58N 53°35' E 008°33'0 0.0
2017-Jun-14 10:28N 53°35' E 008°33'0 0.0
2017-Jun-14 09:58N 53°35' E 008°33'0 0.0
2017-Jun-14 09:28N 53°35' E 008°33'0 0.0
2017-Jun-14 08:58N 53°35' E 008°33'0 0.0
2017-Jun-14 08:25N 53°35' E 008°33'0 0.0
2017-Jun-14 07:58N 53°35' E 008°33'0 0.0
2017-Jun-14 07:28N 53°35' E 008°33'0 0.0
2017-Jun-14 06:58N 53°35' E 008°33'0 0.0
2017-Jun-14 06:28N 53°35' E 008°33'0 0.0
2017-Jun-14 05:58N 53°35' E 008°33'0 0.0
2017-Jun-14 05:28N 53°35' E 008°33'0 0.0
2017-Jun-14 04:58N 53°35' E 008°33'0 0.0
2017-Jun-14 04:28N 53°35' E 008°33'0 0.0
2017-Jun-14 03:58N 53°35' E 008°33'0 0.0
2017-Jun-14 03:28N 53°35' E 008°33'0 0.0
2017-Jun-14 02:58N 53°35' E 008°33'0 0.0
2017-Jun-14 02:28N 53°35' E 008°33'0 0.0
2017-Jun-14 01:58N 53°35' E 008°33'0 0.0
2017-Jun-14 01:28N 53°35' E 008°33'0 0.0
2017-Jun-14 00:58N 53°35' E 008°33'0 0.0
2017-Jun-14 00:28N 53°35' E 008°33'0 0.0
2017-Jun-13 23:58N 53°35' E 008°33'0 0.0
2017-Jun-13 23:28N 53°35' E 008°33'0 0.0
2017-Jun-13 22:55N 53°35' E 008°33'0 0.0
2017-Jun-13 22:28N 53°35' E 008°33'0 0.0
2017-Jun-13 21:58N 53°35' E 008°33'0 0.0
2017-Jun-13 21:28N 53°35' E 008°33'0 0.0
2017-Jun-13 20:58N 53°35' E 008°33'0 1.1
2017-Jun-13 20:31N 53°34' E 008°33'0 0.1
2017-Jun-13 20:00N 53°34' E 008°33'1 1.6
2017-Jun-13 19:30N 53°35' E 008°32'3 6.7
2017-Jun-13 19:00N 53°37' E 008°28'511.0
2017-Jun-13 18:30N 53°41' E 008°21'611.9
2017-Jun-13 18:00N 53°44' E 008°13'611.3
2017-Jun-13 17:30N 53°49' E 008°07'4 8.2
2017-Jun-13 17:00N 53°51' E 008°01'4 7.1
2017-Jun-13 16:30N 53°51' E 007°55'96 8.7
2017-Jun-13 05:28N 53°32' E 005°17'3214.3
2017-Jun-13 03:13N 53°12' E 004°33'315.2
2017-Jun-13 03:00N 53°10' E 004°31'715.0
2017-Jun-13 02:30N 53°04' E 004°24'714.9
2017-Jun-13 02:01N 52°57' E 004°19'714.8
2017-Jun-13 01:30N 52°50' E 004°13'714.9
2017-Jun-13 01:00N 52°44' E 004°06'714.8
2017-Jun-13 00:30N 52°38' E 003°58'714.5
2017-Jun-13 00:01N 52°33' E 003°50'714.5
2017-Jun-12 23:31N 52°28' E 003°41'714.6
2017-Jun-12 23:00N 52°22' E 003°34'713.9
2017-Jun-12 22:30N 52°16' E 003°30'714.4
2017-Jun-12 22:00N 52°09' E 003°30'714.5
2017-Jun-12 21:31N 52°02' E 003°25'815.2
2017-Jun-12 21:00N 51°55' E 003°22'815.3
2017-Jun-12 20:30N 51°48' E 003°17'612.0
2017-Jun-12 19:59N 51°42' E 003°13'612.2
2017-Jun-12 19:31N 51°36' E 003°11'816.0
2017-Jun-12 19:00N 51°30' E 003°04'510.9
2017-Jun-12 18:31N 51°24' E 003°05'816.6
2017-Jun-12 18:00N 51°25' E 003°18'917.1
2017-Jun-12 17:31N 51°25' E 003°32'4 7.4
2017-Jun-12 17:01N 51°26' E 003°38'611.8
2017-Jun-12 16:30N 51°22' E 003°45'714.0
2017-Jun-12 16:01N 51°22' E 003°56'5 9.9
2017-Jun-12 15:30N 51°26' E 004°02'510.6
2017-Jun-12 15:01N 51°22' E 004°08'5 9.0
2017-Jun-12 14:30N 51°21' E 004°15'4 4.3
2017-Jun-12 13:31N 51°17' E 004°15'0 0.0
2017-Jun-12 13:01N 51°17' E 004°15'1 1.2
2017-Jun-12 12:31N 51°16' E 004°14'0 0.8
2017-Jun-12 11:58N 51°16' E 004°13'0 0.0
2017-Jun-12 11:28N 51°16' E 004°13'0 0.0
2017-Jun-12 10:55N 51°16' E 004°13'0 0.0
2017-Jun-12 10:19N 51°16' E 004°13'0 0.0
2017-Jun-12 09:58N 51°16' E 004°13'0 0.0
2017-Jun-12 09:28N 51°16' E 004°13'0 0.0
2017-Jun-12 08:58N 51°16' E 004°13'0 0.0
2017-Jun-12 08:28N 51°16' E 004°13'0 0.0
2017-Jun-12 07:58N 51°16' E 004°13'0 0.0
2017-Jun-12 07:01N 51°16' E 004°13'0 0.0
2017-Jun-12 06:58N 51°16' E 004°13'0 0.0
2017-Jun-12 06:16N 51°16' E 004°13'0 0.0
2017-Jun-12 05:43N 51°16' E 004°13'0 0.0
2017-Jun-12 05:28N 51°16' E 004°13'0 0.0
2017-Jun-12 04:58N 51°16' E 004°13'0 0.0
2017-Jun-12 04:28N 51°16' E 004°13'0 0.0
2017-Jun-12 03:52N 51°16' E 004°13'0 0.0
2017-Jun-12 03:28N 51°16' E 004°13'0 0.0
2017-Jun-12 02:58N 51°16' E 004°13'0 0.0
2017-Jun-12 02:28N 51°16' E 004°13'0 0.0
2017-Jun-12 01:55N 51°16' E 004°13'0 0.0
2017-Jun-12 01:28N 51°16' E 004°13'0 0.0
2017-Jun-12 00:58N 51°16' E 004°13'0 0.0
2017-Jun-12 00:28N 51°16' E 004°13'0 0.0
2017-Jun-11 23:58N 51°16' E 004°13'0 0.0
2017-Jun-11 23:22N 51°16' E 004°13'0 0.0
2017-Jun-11 22:58N 51°16' E 004°13'0 0.0
2017-Jun-11 22:28N 51°16' E 004°13'0 0.0
2017-Jun-11 21:58N 51°16' E 004°13'0 0.0
2017-Jun-11 21:25N 51°16' E 004°13'0 0.0
2017-Jun-11 20:58N 51°16' E 004°13'0 0.0
2017-Jun-11 20:28N 51°16' E 004°13'0 0.0
2017-Jun-11 19:58N 51°16' E 004°13'0 0.0
2017-Jun-11 19:19N 51°16' E 004°13'0 0.0
2017-Jun-11 18:58N 51°16' E 004°13'0 0.0
2017-Jun-11 18:28N 51°16' E 004°13'0 0.0
2017-Jun-11 17:58N 51°16' E 004°13'0 0.0
2017-Jun-11 17:28N 51°16' E 004°13'0 0.0
2017-Jun-11 16:58N 51°16' E 004°13'0 0.0
2017-Jun-11 16:28N 51°16' E 004°13'0 0.0
2017-Jun-11 15:58N 51°16' E 004°13'0 0.0
2017-Jun-11 15:28N 51°16' E 004°13'0 0.0
2017-Jun-11 14:58N 51°16' E 004°13'0 0.0
2017-Jun-11 13:58N 51°16' E 004°13'0 0.0
2017-Jun-11 13:28N 51°16' E 004°13'0 0.0
2017-Jun-11 12:58N 51°16' E 004°13'0 0.0
2017-Jun-11 12:28N 51°16' E 004°13'0 0.0
2017-Jun-11 11:58N 51°16' E 004°13'0 0.0
2017-Jun-11 11:22N 51°16' E 004°13'0 0.0
2017-Jun-11 10:58N 51°16' E 004°13'0 0.0
2017-Jun-11 10:22N 51°16' E 004°13'0 0.0
2017-Jun-11 09:58N 51°16' E 004°13'0 0.0
2017-Jun-11 09:25N 51°16' E 004°13'0 0.0
2017-Jun-11 08:58N 51°16' E 004°13'0 0.0
2017-Jun-11 08:28N 51°16' E 004°13'0 0.0
2017-Jun-11 07:55N 51°16' E 004°13'0 0.0
2017-Jun-11 07:25N 51°16' E 004°13'0 0.0
2017-Jun-11 06:58N 51°16' E 004°13'0 0.0
2017-Jun-11 06:28N 51°16' E 004°13'0 0.0
2017-Jun-11 05:55N 51°16' E 004°13'0 0.0
2017-Jun-11 05:28N 51°16' E 004°13'0 0.0
2017-Jun-11 04:55N 51°16' E 004°13'0 0.0
2017-Jun-11 04:28N 51°16' E 004°13'0 0.0
2017-Jun-11 03:58N 51°16' E 004°13'0 0.0
2017-Jun-11 03:28N 51°16' E 004°13'0 0.0
2017-Jun-11 02:55N 51°16' E 004°13'0 0.0
2017-Jun-11 02:28N 51°16' E 004°13'0 0.0
2017-Jun-11 01:58N 51°16' E 004°13'0 0.0
2017-Jun-11 01:28N 51°16' E 004°13'0 0.0
2017-Jun-11 00:52N 51°16' E 004°13'0 0.0
2017-Jun-11 00:28N 51°16' E 004°13'0 0.0
2017-Jun-10 23:55N 51°16' E 004°13'0 0.0
2017-Jun-10 23:25N 51°16' E 004°13'0 0.0
2017-Jun-10 22:55N 51°16' E 004°13'0 0.0
2017-Jun-10 22:25N 51°16' E 004°13'0 0.0
2017-Jun-10 21:58N 51°16' E 004°13'0 0.0
2017-Jun-10 21:28N 51°16' E 004°13'0 0.0
2017-Jun-10 20:55N 51°16' E 004°13'0 0.0
2017-Jun-10 20:28N 51°16' E 004°13'  

Dump ship's entire track history